createdAt,value
2023-01-23T00:02:13.114Z,-0.62
2023-01-23T00:07:14.700Z,-0.65
2023-01-23T00:12:16.392Z,-0.72
2023-01-23T00:17:17.948Z,-0.77
2023-01-23T00:22:19.472Z,-0.75
2023-01-23T00:27:21.144Z,-0.77
2023-01-23T00:32:22.933Z,-0.73
2023-01-23T00:37:24.492Z,-0.73
2023-01-23T00:42:26.090Z,-0.71
2023-01-23T00:47:27.743Z,-0.71
2023-01-23T00:52:30.283Z,-0.71
2023-01-23T00:57:31.860Z,-0.72
2023-01-23T01:02:33.705Z,-0.72
2023-01-23T01:07:35.559Z,-0.70
2023-01-23T01:12:37.380Z,-0.68
2023-01-23T01:17:39.212Z,-0.66
2023-01-23T01:22:40.751Z,-0.68
2023-01-23T01:27:42.367Z,-0.69
2023-01-23T01:32:44.572Z,-0.70
2023-01-23T01:37:46.600Z,-0.69
2023-01-23T01:42:53.629Z,-0.71
2023-01-23T01:47:55.429Z,-0.73
2023-01-23T01:52:57.025Z,-0.72
2023-01-23T01:57:58.915Z,-0.74
2023-01-23T02:03:03.410Z,-0.72
2023-01-23T02:08:32.596Z,-0.71
2023-01-23T02:13:37.138Z,-0.71
2023-01-23T02:18:44.562Z,-0.70
2023-01-23T02:23:52.305Z,-0.69
2023-01-23T02:28:59.319Z,-0.69
2023-01-23T02:34:05.914Z,-0.71
2023-01-23T02:39:13.410Z,-0.74
2023-01-23T02:44:27.399Z,-0.72
2023-01-23T02:49:34.127Z,-0.70
2023-01-23T02:54:40.381Z,-0.67
2023-01-23T03:00:00.699Z,-0.63
2023-01-23T03:05:02.836Z,-0.62
2023-01-23T03:10:07.486Z,-0.60
2023-01-23T03:15:10.145Z,-0.58
2023-01-23T03:20:11.884Z,-0.58
2023-01-23T03:25:13.811Z,-0.58
2023-01-23T03:30:17.259Z,-0.56
2023-01-23T03:35:22.084Z,-0.56
2023-01-23T03:40:45.445Z,-0.58
2023-01-23T03:45:50.309Z,-0.58
2023-01-23T03:50:53.085Z,-0.57
2023-01-23T03:55:56.198Z,-0.55
2023-01-23T04:01:01.375Z,-0.54
2023-01-23T04:06:03.403Z,-0.53
2023-01-23T04:11:08.397Z,-0.53
2023-01-23T04:16:10.070Z,-0.53
2023-01-23T04:21:11.896Z,-0.51
2023-01-23T04:26:14.461Z,-0.49
2023-01-23T04:31:16.444Z,-0.48
2023-01-23T04:36:18.273Z,-0.46
2023-01-23T04:41:25.923Z,-0.45
2023-01-23T04:46:34.896Z,-0.44
2023-01-23T04:51:44.472Z,-0.44
2023-01-23T04:56:46.825Z,-0.42
2023-01-23T05:01:49.807Z,-0.42
2023-01-23T05:06:51.968Z,-0.44
2023-01-23T05:11:53.930Z,-0.41
2023-01-23T05:16:58.020Z,-0.37
2023-01-23T05:22:10.259Z,-0.39
2023-01-23T05:27:12.938Z,-0.40
2023-01-23T05:32:17.256Z,-0.43
2023-01-23T05:37:20.374Z,-0.46
2023-01-23T05:42:25.802Z,-0.44
2023-01-23T05:47:37.276Z,-0.46
2023-01-23T05:52:41.067Z,-0.48
2023-01-23T05:57:42.682Z,-0.51
2023-01-23T06:03:08.921Z,-0.48
2023-01-23T06:08:29.103Z,-0.47
2023-01-23T06:13:31.421Z,-0.51
2023-01-23T06:18:33.308Z,-0.56
2023-01-23T06:23:34.888Z,-0.70
2023-01-23T06:28:37.350Z,-0.71
2023-01-23T06:33:41.170Z,-0.71
2023-01-23T06:38:46.017Z,-0.73
2023-01-23T06:43:49.921Z,-0.75
2023-01-23T06:48:56.639Z,-0.73
2023-01-23T06:53:58.702Z,-0.69
2023-01-23T06:59:00.696Z,-0.65
2023-01-23T07:04:06.196Z,-0.60
2023-01-23T07:09:08.022Z,-0.57
2023-01-23T07:14:10.985Z,-0.56
2023-01-23T07:19:14.147Z,-0.52
2023-01-23T07:24:17.239Z,-0.51
2023-01-23T07:29:18.779Z,-0.48
2023-01-23T07:34:20.337Z,-0.41
2023-01-23T07:39:21.947Z,-0.39
2023-01-23T07:44:23.644Z,-0.38
2023-01-23T07:49:25.275Z,-0.34
2023-01-23T07:54:26.844Z,-0.33
2023-01-23T07:59:28.423Z,-0.27
2023-01-23T08:04:29.987Z,-0.21
2023-01-23T08:09:31.670Z,-0.17
2023-01-23T08:14:33.229Z,-0.16
2023-01-23T08:19:34.759Z,-0.11
2023-01-23T08:24:36.522Z,-0.06
2023-01-23T08:29:38.051Z,-0.04
2023-01-23T08:34:39.605Z,-0.01
2023-01-23T08:39:41.168Z,0.05
2023-01-23T08:44:44.918Z,0.16
2023-01-23T08:49:46.527Z,0.18
2023-01-23T08:54:48.056Z,0.19
2023-01-23T08:59:49.619Z,0.26
2023-01-23T09:04:51.198Z,0.31
2023-01-23T09:09:54.944Z,0.35
2023-01-23T09:14:56.483Z,0.42
2023-01-23T09:20:00.494Z,0.49
2023-01-23T09:25:02.374Z,0.50
2023-01-23T09:30:04.581Z,0.50
2023-01-23T09:35:06.594Z,0.59
2023-01-23T09:40:16.899Z,0.61
2023-01-23T09:45:24.795Z,0.64
2023-01-23T09:50:26.433Z,0.62
2023-01-23T09:55:44.135Z,0.73
2023-01-23T10:00:46.500Z,0.81
2023-01-23T10:05:54.253Z,0.90
2023-01-23T10:11:08.517Z,0.99
2023-01-23T10:16:24.583Z,1.09
2023-01-23T10:21:38.930Z,1.15
2023-01-23T10:26:45.067Z,1.08
2023-01-23T10:31:58.608Z,0.98
2023-01-23T10:37:12.206Z,0.89
2023-01-23T10:42:14.270Z,0.88
2023-01-23T10:47:42.564Z,0.86
2023-01-23T10:52:46.077Z,0.82
2023-01-23T10:57:49.776Z,0.79
2023-01-23T11:02:51.426Z,0.81
2023-01-23T11:07:56.032Z,0.79
2023-01-23T11:13:00.646Z,0.83
2023-01-23T11:18:02.375Z,0.91
2023-01-23T11:23:15.849Z,1.06
2023-01-23T11:28:36.678Z,1.33
2023-01-23T11:33:57.203Z,1.45
2023-01-23T11:39:34.670Z,1.66
2023-01-23T11:44:45.642Z,1.68
2023-01-23T11:50:18.058Z,1.73
2023-01-23T11:55:42.334Z,1.55
2023-01-23T12:00:49.542Z,1.41
2023-01-23T12:06:03.539Z,1.27
2023-01-23T12:11:17.110Z,1.36
2023-01-23T12:16:30.834Z,1.48
2023-01-23T12:21:41.182Z,1.48
2023-01-23T12:27:24.312Z,1.58
2023-01-23T12:32:43.002Z,1.58
2023-01-23T12:38:16.155Z,1.56
2023-01-23T12:43:38.174Z,1.52
2023-01-23T12:48:53.851Z,1.51
2023-01-23T12:53:58.603Z,1.47
2023-01-23T12:59:14.252Z,1.39
2023-01-23T13:04:48.046Z,1.41
2023-01-23T13:10:47.505Z,1.57
2023-01-23T13:16:04.481Z,1.62
2023-01-23T13:21:29.291Z,1.60
2023-01-23T13:26:30.965Z,1.52
2023-01-23T13:31:36.061Z,1.61
2023-01-23T13:36:38.160Z,1.71
2023-01-23T13:41:39.840Z,1.87
2023-01-23T14:20:23.818Z,1.91
2023-01-23T14:25:26.927Z,1.91
2023-01-23T14:30:30.352Z,1.88
2023-01-23T14:35:32.973Z,1.91
2023-01-23T14:40:47.118Z,1.87
2023-01-23T14:46:22.237Z,1.87
2023-01-23T14:51:26.653Z,1.84
2023-01-23T14:56:33.165Z,1.84
2023-01-23T15:01:35.968Z,1.82
2023-01-23T15:06:37.863Z,1.82
2023-01-23T15:11:39.567Z,1.80
2023-01-23T15:16:43.581Z,1.78
2023-01-23T15:21:45.200Z,1.78
2023-01-23T15:26:57.923Z,1.76
2023-01-23T15:32:01.055Z,1.71
2023-01-23T15:37:21.879Z,1.70
2023-01-23T15:42:27.665Z,1.67
2023-01-23T15:47:31.036Z,1.63
2023-01-23T15:52:50.696Z,1.60
2023-01-23T15:57:53.530Z,1.60
2023-01-23T16:02:57.707Z,1.57
2023-01-23T16:08:04.437Z,1.56
2023-01-23T16:13:07.823Z,1.54
2023-01-23T16:18:09.854Z,1.52
2023-01-23T16:23:16.191Z,1.51
2023-01-23T16:28:19.319Z,1.50
2023-01-23T16:33:21.938Z,1.50
2023-01-23T16:38:27.199Z,1.48
2023-01-23T16:43:28.777Z,1.48
2023-01-23T16:48:30.337Z,1.47
2023-01-23T16:53:36.567Z,1.45
2023-01-23T16:58:40.041Z,1.46
2023-01-23T17:03:42.266Z,1.45
2023-01-23T17:08:43.950Z,1.46
2023-01-23T17:13:45.637Z,1.45
2023-01-23T17:18:47.389Z,1.48
2023-01-23T17:23:49.078Z,1.47
2023-01-23T17:28:50.705Z,1.48
2023-01-23T17:33:52.721Z,1.47
2023-01-23T17:39:00.439Z,1.45
2023-01-23T17:44:01.988Z,1.41
2023-01-23T17:49:04.341Z,1.38
2023-01-23T17:54:09.715Z,1.38
2023-01-23T17:59:11.818Z,1.39
2023-01-23T18:04:22.090Z,1.36
2023-01-23T18:09:23.631Z,1.35
2023-01-23T18:15:03.532Z,1.35
2023-01-23T18:20:16.548Z,1.33
2023-01-23T18:25:26.078Z,1.34
2023-01-23T18:30:41.694Z,1.34
2023-01-23T18:36:06.334Z,1.37
2023-01-23T18:41:21.081Z,1.36
2023-01-23T18:46:27.895Z,1.37
2023-01-23T18:51:41.307Z,1.41
2023-01-23T18:56:55.779Z,1.41
2023-01-23T19:02:21.358Z,1.39
2023-01-23T19:07:23.188Z,1.39
2023-01-23T19:13:06.339Z,1.41
2023-01-23T19:18:40.349Z,1.39
2023-01-23T19:24:06.905Z,1.38
2023-01-23T19:29:21.064Z,1.37
2023-01-23T19:34:23.788Z,1.37
2023-01-23T19:39:25.381Z,1.37
2023-01-23T19:44:28.972Z,1.36
2023-01-23T19:49:30.565Z,1.35
2023-01-23T19:54:32.119Z,1.36
2023-01-23T19:59:33.713Z,1.38
2023-01-23T20:04:35.284Z,1.38
2023-01-23T20:09:36.800Z,1.38
2023-01-23T20:14:38.353Z,1.37
2023-01-23T20:19:40.202Z,1.41
2023-01-23T20:24:41.714Z,1.38
2023-01-23T20:29:43.247Z,1.41
2023-01-23T20:34:44.864Z,1.40
2023-01-23T20:39:46.523Z,1.39
2023-01-23T20:44:48.085Z,1.39
2023-01-23T20:49:49.690Z,1.36
2023-01-23T20:54:51.315Z,1.36
2023-01-23T20:59:52.845Z,1.34
2023-01-23T21:04:54.446Z,1.33
2023-01-23T21:09:55.962Z,1.30
2023-01-23T21:14:57.489Z,1.30
2023-01-23T21:19:59.054Z,1.28
2023-01-23T21:25:00.621Z,1.29
2023-01-23T21:30:02.167Z,1.29
2023-01-23T21:35:03.849Z,1.29
2023-01-23T21:40:06.109Z,1.30
2023-01-23T21:45:08.266Z,1.34
2023-01-23T21:50:10.406Z,1.42
2023-01-23T21:55:11.971Z,1.48
2023-01-23T22:00:32.337Z,1.55
2023-01-23T22:05:36.598Z,1.64
2023-01-23T22:10:38.266Z,1.74
2023-01-23T22:15:39.835Z,1.81
2023-01-23T22:20:41.351Z,1.86
2023-01-23T22:25:42.899Z,1.89
2023-01-23T22:30:44.464Z,1.90
2023-01-23T22:35:46.177Z,1.90
2023-01-23T22:41:00.006Z,1.90
2023-01-23T22:46:15.940Z,1.89
2023-01-23T22:51:24.611Z,1.86
2023-01-23T22:56:28.134Z,1.86
2023-01-23T23:01:30.156Z,1.83
2023-01-23T23:06:31.732Z,1.83
2023-01-23T23:11:33.430Z,1.78
2023-01-23T23:16:35.026Z,1.78
2023-01-23T23:21:37.843Z,1.75
2023-01-23T23:26:39.388Z,1.72
2023-01-23T23:31:41.343Z,1.69
2023-01-23T23:36:43.073Z,1.68
2023-01-23T23:41:44.657Z,1.66
2023-01-23T23:46:46.545Z,1.62
2023-01-23T23:51:48.102Z,1.61
2023-01-23T23:56:49.721Z,1.60
